sensor_id;sensor_type;location;lat;lon;timestamp;temperature;humidity
46440;DHT22;32138;50.966;6.968;2024-01-30T00:00:07;9.10;99.90
46440;DHT22;32138;50.966;6.968;2024-01-30T00:01:38;9.20;99.90
46440;DHT22;32138;50.966;6.968;2024-01-30T00:03:09;9.20;99.90
46440;DHT22;32138;50.966;6.968;2024-01-30T00:04:40;9.30;99.90
46440;DHT22;32138;50.966;6.968;2024-01-30T00:06:11;9.20;99.90
46440;DHT22;32138;50.966;6.968;2024-01-30T00:07:42;9.20;99.90
46440;DHT22;32138;50.966;6.968;2024-01-30T00:09:13;9.20;99.90
46440;DHT22;32138;50.966;6.968;2024-01-30T00:10:44;9.30;99.90
46440;DHT22;32138;50.966;6.968;2024-01-30T00:12:15;9.20;99.90
46440;DHT22;32138;50.966;6.968;2024-01-30T00:13:46;9.20;99.90
46440;DHT22;32138;50.966;6.968;2024-01-30T00:15:17;9.10;99.90
46440;DHT22;32138;50.966;6.968;2024-01-30T00:16:48;9.10;99.90
46440;DHT22;32138;50.966;6.968;2024-01-30T00:18:19;9.20;99.90
46440;DHT22;32138;50.966;6.968;2024-01-30T00:19:50;9.30;99.90
46440;DHT22;32138;50.966;6.968;2024-01-30T00:21:21;9.30;99.90
46440;DHT22;32138;50.966;6.968;2024-01-30T00:22:52;9.20;99.90
46440;DHT22;32138;50.966;6.968;2024-01-30T00:24:22;9.10;99.90
46440;DHT22;32138;50.966;6.968;2024-01-30T00:25:53;9.30;99.90
46440;DHT22;32138;50.966;6.968;2024-01-30T00:27:24;9.30;99.90
46440;DHT22;32138;50.966;6.968;2024-01-30T00:28:56;9.20;99.90
46440;DHT22;32138;50.966;6.968;2024-01-30T00:30:27;9.10;99.90
46440;DHT22;32138;50.966;6.968;2024-01-30T00:31:57;9.20;99.90
46440;DHT22;32138;50.966;6.968;2024-01-30T00:33:29;9.10;99.90
46440;DHT22;32138;50.966;6.968;2024-01-30T00:35:00;9.10;99.90
46440;DHT22;32138;50.966;6.968;2024-01-30T00:36:31;9.00;99.90
46440;DHT22;32138;50.966;6.968;2024-01-30T00:38:01;9.10;99.90
46440;DHT22;32138;50.966;6.968;2024-01-30T00:39:32;9.00;99.90
46440;DHT22;32138;50.966;6.968;2024-01-30T00:41:03;9.10;99.90
46440;DHT22;32138;50.966;6.968;2024-01-30T00:42:34;9.10;99.90
46440;DHT22;32138;50.966;6.968;2024-01-30T00:44:05;9.10;99.90
46440;DHT22;32138;50.966;6.968;2024-01-30T00:45:36;9.10;99.90
46440;DHT22;32138;50.966;6.968;2024-01-30T00:47:06;9.20;99.90
46440;DHT22;32138;50.966;6.968;2024-01-30T00:48:37;9.00;99.90
46440;DHT22;32138;50.966;6.968;2024-01-30T00:50:08;9.00;99.90
46440;DHT22;32138;50.966;6.968;2024-01-30T00:51:40;9.10;99.90
46440;DHT22;32138;50.966;6.968;2024-01-30T00:53:11;9.00;99.90
46440;DHT22;32138;50.966;6.968;2024-01-30T00:54:41;9.10;99.90
46440;DHT22;32138;50.966;6.968;2024-01-30T00:56:12;9.00;99.90
46440;DHT22;32138;50.966;6.968;2024-01-30T00:57:43;9.10;99.90
46440;DHT22;32138;50.966;6.968;2024-01-30T00:59:14;9.20;99.90
46440;DHT22;32138;50.966;6.968;2024-01-30T01:00:45;9.10;99.90
46440;DHT22;32138;50.966;6.968;2024-01-30T01:02:16;9.10;99.90
46440;DHT22;32138;50.966;6.968;2024-01-30T01:03:47;9.10;99.90
46440;DHT22;32138;50.966;6.968;2024-01-30T01:05:18;9.00;99.90
46440;DHT22;32138;50.966;6.968;2024-01-30T01:06:49;9.00;99.90
46440;DHT22;32138;50.966;6.968;2024-01-30T01:08:20;8.90;99.90
46440;DHT22;32138;50.966;6.968;2024-01-30T01:09:51;9.10;99.90
46440;DHT22;32138;50.966;6.968;2024-01-30T01:11:22;8.90;99.90
46440;DHT22;32138;50.966;6.968;2024-01-30T01:12:52;9.00;99.90
46440;DHT22;32138;50.966;6.968;2024-01-30T01:14:23;9.20;99.90
46440;DHT22;32138;50.966;6.968;2024-01-30T01:15:54;9.20;99.90
46440;DHT22;32138;50.966;6.968;2024-01-30T01:17:25;9.00;99.90
46440;DHT22;32138;50.966;6.968;2024-01-30T01:18:56;9.10;99.90
46440;DHT22;32138;50.966;6.968;2024-01-30T01:20:27;9.20;99.90
46440;DHT22;32138;50.966;6.968;2024-01-30T01:21:57;9.10;99.90
46440;DHT22;32138;50.966;6.968;2024-01-30T01:23:28;8.90;99.90
46440;DHT22;32138;50.966;6.968;2024-01-30T01:25:02;9.10;99.90
46440;DHT22;32138;50.966;6.968;2024-01-30T01:26:33;9.00;99.90
46440;DHT22;32138;50.966;6.968;2024-01-30T01:28:04;8.90;99.90
46440;DHT22;32138;50.966;6.968;2024-01-30T01:29:35;9.00;99.90
46440;DHT22;32138;50.966;6.968;2024-01-30T01:31:06;9.00;99.90
46440;DHT22;32138;50.966;6.968;2024-01-30T01:32:37;9.10;99.90
46440;DHT22;32138;50.966;6.968;2024-01-30T01:34:09;9.10;99.90
46440;DHT22;32138;50.966;6.968;2024-01-30T01:35:43;9.10;99.90
46440;DHT22;32138;50.966;6.968;2024-01-30T01:37:13;9.10;99.90
46440;DHT22;32138;50.966;6.968;2024-01-30T01:38:44;9.00;99.90
46440;DHT22;32138;50.966;6.968;2024-01-30T01:40:15;9.10;99.90
46440;DHT22;32138;50.966;6.968;2024-01-30T01:41:46;9.00;99.90
46440;DHT22;32138;50.966;6.968;2024-01-30T01:43:17;9.10;99.90
46440;DHT22;32138;50.966;6.968;2024-01-30T01:44:48;9.10;99.90
46440;DHT22;32138;50.966;6.968;2024-01-30T01:46:18;9.20;99.90
46440;DHT22;32138;50.966;6.968;2024-01-30T01:47:52;9.10;99.90
46440;DHT22;32138;50.966;6.968;2024-01-30T01:49:25;9.10;99.90
46440;DHT22;32138;50.966;6.968;2024-01-30T01:50:58;9.10;99.90
46440;DHT22;32138;50.966;6.968;2024-01-30T01:52:29;9.20;99.90
46440;DHT22;32138;50.966;6.968;2024-01-30T01:54:03;9.00;99.90
46440;DHT22;32138;50.966;6.968;2024-01-30T01:55:35;9.00;99.90
46440;DHT22;32138;50.966;6.968;2024-01-30T01:57:06;9.00;99.90
46440;DHT22;32138;50.966;6.968;2024-01-30T01:58:37;8.80;99.90
46440;DHT22;32138;50.966;6.968;2024-01-30T02:00:10;9.00;99.90
46440;DHT22;32138;50.966;6.968;2024-01-30T02:01:41;9.10;99.90
46440;DHT22;32138;50.966;6.968;2024-01-30T02:03:13;9.10;99.90
46440;DHT22;32138;50.966;6.968;2024-01-30T02:04:45;9.20;99.90
46440;DHT22;32138;50.966;6.968;2024-01-30T02:06:16;9.30;99.90
46440;DHT22;32138;50.966;6.968;2024-01-30T02:07:47;9.20;99.90
46440;DHT22;32138;50.966;6.968;2024-01-30T02:09:17;9.30;99.90
46440;DHT22;32138;50.966;6.968;2024-01-30T02:10:49;9.20;99.90
46440;DHT22;32138;50.966;6.968;2024-01-30T02:12:19;9.10;99.90
46440;DHT22;32138;50.966;6.968;2024-01-30T02:13:50;9.00;99.90
46440;DHT22;32138;50.966;6.968;2024-01-30T02:15:21;8.90;99.90
46440;DHT22;32138;50.966;6.968;2024-01-30T02:16:52;9.00;99.90
46440;DHT22;32138;50.966;6.968;2024-01-30T02:18:23;9.00;99.90
46440;DHT22;32138;50.966;6.968;2024-01-30T02:19:53;9.10;99.90
46440;DHT22;32138;50.966;6.968;2024-01-30T02:21:24;9.00;99.90
46440;DHT22;32138;50.966;6.968;2024-01-30T02:22:56;9.00;99.90
46440;DHT22;32138;50.966;6.968;2024-01-30T02:24:29;9.20;99.90
46440;DHT22;32138;50.966;6.968;2024-01-30T02:26:00;9.30;99.90
46440;DHT22;32138;50.966;6.968;2024-01-30T02:27:31;9.30;99.90
46440;DHT22;32138;50.966;6.968;2024-01-30T02:29:02;9.30;99.90
46440;DHT22;32138;50.966;6.968;2024-01-30T02:30:32;9.20;99.90
46440;DHT22;32138;50.966;6.968;2024-01-30T02:32:03;9.20;99.90
46440;DHT22;32138;50.966;6.968;2024-01-30T02:33:36;9.10;99.90
46440;DHT22;32138;50.966;6.968;2024-01-30T02:35:06;9.20;99.90
46440;DHT22;32138;50.966;6.968;2024-01-30T02:36:37;9.20;99.90
46440;DHT22;32138;50.966;6.968;2024-01-30T02:38:08;9.30;99.90
46440;DHT22;32138;50.966;6.968;2024-01-30T02:39:39;9.20;99.90
46440;DHT22;32138;50.966;6.968;2024-01-30T02:41:09;9.10;99.90
46440;DHT22;32138;50.966;6.968;2024-01-30T02:42:40;9.10;99.90
46440;DHT22;32138;50.966;6.968;2024-01-30T02:44:12;9.10;99.90
46440;DHT22;32138;50.966;6.968;2024-01-30T02:45:43;9.20;99.90
46440;DHT22;32138;50.966;6.968;2024-01-30T02:47:13;9.20;99.90
46440;DHT22;32138;50.966;6.968;2024-01-30T02:48:44;9.00;99.90
46440;DHT22;32138;50.966;6.968;2024-01-30T02:50:15;9.00;99.90
46440;DHT22;32138;50.966;6.968;2024-01-30T02:51:46;9.10;99.90
46440;DHT22;32138;50.966;6.968;2024-01-30T02:53:17;9.20;99.90
46440;DHT22;32138;50.966;6.968;2024-01-30T02:54:48;9.20;99.90
46440;DHT22;32138;50.966;6.968;2024-01-30T02:56:18;9.10;99.90
46440;DHT22;32138;50.966;6.968;2024-01-30T02:57:49;9.10;99.90
46440;DHT22;32138;50.966;6.968;2024-01-30T02:59:20;9.20;99.90
46440;DHT22;32138;50.966;6.968;2024-01-30T03:00:50;9.10;99.90
46440;DHT22;32138;50.966;6.968;2024-01-30T03:02:21;9.10;99.90
46440;DHT22;32138;50.966;6.968;2024-01-30T03:03:52;9.10;99.90
46440;DHT22;32138;50.966;6.968;2024-01-30T03:05:23;9.00;99.90
46440;DHT22;32138;50.966;6.968;2024-01-30T03:06:53;9.10;99.90
46440;DHT22;32138;50.966;6.968;2024-01-30T03:08:24;9.10;99.90
46440;DHT22;32138;50.966;6.968;2024-01-30T03:09:55;9.10;99.90
46440;DHT22;32138;50.966;6.968;2024-01-30T03:11:25;9.00;99.90
46440;DHT22;32138;50.966;6.968;2024-01-30T03:12:56;8.90;99.90
46440;DHT22;32138;50.966;6.968;2024-01-30T03:14:27;9.00;99.90
46440;DHT22;32138;50.966;6.968;2024-01-30T03:15:58;9.10;99.90
46440;DHT22;32138;50.966;6.968;2024-01-30T03:17:28;9.00;99.90
46440;DHT22;32138;50.966;6.968;2024-01-30T03:18:59;9.00;99.90
46440;DHT22;32138;50.966;6.968;2024-01-30T03:20:32;9.10;99.90
46440;DHT22;32138;50.966;6.968;2024-01-30T03:22:03;9.10;99.90
46440;DHT22;32138;50.966;6.968;2024-01-30T03:23:33;9.20;99.90
46440;DHT22;32138;50.966;6.968;2024-01-30T03:25:04;9.10;99.90
46440;DHT22;32138;50.966;6.968;2024-01-30T03:26:36;9.00;99.90
46440;DHT22;32138;50.966;6.968;2024-01-30T03:28:07;9.10;99.90
46440;DHT22;32138;50.966;6.968;2024-01-30T03:29:38;9.10;99.90
46440;DHT22;32138;50.966;6.968;2024-01-30T03:31:08;9.00;99.90
46440;DHT22;32138;50.966;6.968;2024-01-30T03:32:39;9.10;99.90
46440;DHT22;32138;50.966;6.968;2024-01-30T03:34:10;9.10;99.90
46440;DHT22;32138;50.966;6.968;2024-01-30T03:35:40;9.20;99.90
46440;DHT22;32138;50.966;6.968;2024-01-30T03:37:11;9.10;99.90
46440;DHT22;32138;50.966;6.968;2024-01-30T03:38:42;9.10;99.90
46440;DHT22;32138;50.966;6.968;2024-01-30T03:40:13;9.00;99.90
46440;DHT22;32138;50.966;6.968;2024-01-30T03:41:44;9.00;99.90
46440;DHT22;32138;50.966;6.968;2024-01-30T03:43:14;8.90;99.90
46440;DHT22;32138;50.966;6.968;2024-01-30T03:44:45;8.90;99.90
46440;DHT22;32138;50.966;6.968;2024-01-30T03:46:16;9.10;99.90
46440;DHT22;32138;50.966;6.968;2024-01-30T03:47:47;9.10;99.90
46440;DHT22;32138;50.966;6.968;2024-01-30T03:49:18;9.00;99.90
46440;DHT22;32138;50.966;6.968;2024-01-30T03:50:49;9.00;99.90
46440;DHT22;32138;50.966;6.968;2024-01-30T03:52:19;9.20;99.90
46440;DHT22;32138;50.966;6.968;2024-01-30T03:53:50;9.10;99.90
46440;DHT22;32138;50.966;6.968;2024-01-30T03:55:21;8.90;99.90
46440;DHT22;32138;50.966;6.968;2024-01-30T03:56:51;9.10;99.90
46440;DHT22;32138;50.966;6.968;2024-01-30T03:58:22;9.10;99.90
46440;DHT22;32138;50.966;6.968;2024-01-30T03:59:53;9.10;99.90
46440;DHT22;32138;50.966;6.968;2024-01-30T04:01:24;9.10;99.90
46440;DHT22;32138;50.966;6.968;2024-01-30T04:02:54;9.00;99.90
46440;DHT22;32138;50.966;6.968;2024-01-30T04:04:25;8.90;99.90
46440;DHT22;32138;50.966;6.968;2024-01-30T04:05:56;9.00;99.90
46440;DHT22;32138;50.966;6.968;2024-01-30T04:07:27;9.00;99.90
46440;DHT22;32138;50.966;6.968;2024-01-30T04:08:57;9.00;99.90
46440;DHT22;32138;50.966;6.968;2024-01-30T04:10:28;9.10;99.90
46440;DHT22;32138;50.966;6.968;2024-01-30T04:11:59;9.00;99.90
46440;DHT22;32138;50.966;6.968;2024-01-30T04:13:30;9.10;99.90
46440;DHT22;32138;50.966;6.968;2024-01-30T04:15:01;9.10;99.90
46440;DHT22;32138;50.966;6.968;2024-01-30T04:16:32;9.10;99.90
46440;DHT22;32138;50.966;6.968;2024-01-30T04:18:03;9.10;99.90
46440;DHT22;32138;50.966;6.968;2024-01-30T04:19:37;8.90;99.90
46440;DHT22;32138;50.966;6.968;2024-01-30T04:21:09;9.10;99.90
46440;DHT22;32138;50.966;6.968;2024-01-30T04:22:39;8.90;99.90
46440;DHT22;32138;50.966;6.968;2024-01-30T04:24:10;8.90;99.90
46440;DHT22;32138;50.966;6.968;2024-01-30T04:25:41;9.00;99.90
46440;DHT22;32138;50.966;6.968;2024-01-30T04:27:12;9.00;99.90
46440;DHT22;32138;50.966;6.968;2024-01-30T04:28:44;8.90;99.90
46440;DHT22;32138;50.966;6.968;2024-01-30T04:30:15;9.00;99.90
46440;DHT22;32138;50.966;6.968;2024-01-30T04:31:46;8.90;99.90
46440;DHT22;32138;50.966;6.968;2024-01-30T04:33:16;8.90;99.90
46440;DHT22;32138;50.966;6.968;2024-01-30T04:34:48;8.90;99.90
46440;DHT22;32138;50.966;6.968;2024-01-30T04:36:19;8.90;99.90
46440;DHT22;32138;50.966;6.968;2024-01-30T04:37:51;8.80;99.90
46440;DHT22;32138;50.966;6.968;2024-01-30T04:39:22;8.70;99.90
46440;DHT22;32138;50.966;6.968;2024-01-30T04:40:53;8.80;99.90
46440;DHT22;32138;50.966;6.968;2024-01-30T04:42:24;8.70;99.90
46440;DHT22;32138;50.966;6.968;2024-01-30T04:43:54;8.90;99.90
46440;DHT22;32138;50.966;6.968;2024-01-30T04:45:25;8.70;99.90
46440;DHT22;32138;50.966;6.968;2024-01-30T04:46:56;8.70;99.90
46440;DHT22;32138;50.966;6.968;2024-01-30T04:48:29;8.80;99.90
46440;DHT22;32138;50.966;6.968;2024-01-30T04:50:00;8.70;99.90
46440;DHT22;32138;50.966;6.968;2024-01-30T04:51:31;8.70;99.90
46440;DHT22;32138;50.966;6.968;2024-01-30T04:53:02;8.70;99.90
46440;DHT22;32138;50.966;6.968;2024-01-30T04:54:33;8.80;99.90
46440;DHT22;32138;50.966;6.968;2024-01-30T04:56:05;8.70;99.90
46440;DHT22;32138;50.966;6.968;2024-01-30T04:57:36;8.80;99.90
46440;DHT22;32138;50.966;6.968;2024-01-30T04:59:07;8.70;99.90
46440;DHT22;32138;50.966;6.968;2024-01-30T05:00:38;8.60;99.90
46440;DHT22;32138;50.966;6.968;2024-01-30T05:02:09;8.60;99.90
46440;DHT22;32138;50.966;6.968;2024-01-30T05:03:40;8.70;99.90
46440;DHT22;32138;50.966;6.968;2024-01-30T05:05:11;8.60;99.90
46440;DHT22;32138;50.966;6.968;2024-01-30T05:06:41;8.60;99.90
46440;DHT22;32138;50.966;6.968;2024-01-30T05:08:12;8.60;99.90
46440;DHT22;32138;50.966;6.968;2024-01-30T05:09:43;8.60;99.90
46440;DHT22;32138;50.966;6.968;2024-01-30T05:11:14;8.70;99.90
46440;DHT22;32138;50.966;6.968;2024-01-30T05:12:45;8.70;99.90
46440;DHT22;32138;50.966;6.968;2024-01-30T05:14:16;8.60;99.90
46440;DHT22;32138;50.966;6.968;2024-01-30T05:15:46;8.60;99.90
46440;DHT22;32138;50.966;6.968;2024-01-30T05:17:17;8.70;99.90
46440;DHT22;32138;50.966;6.968;2024-01-30T05:18:48;8.60;99.90
46440;DHT22;32138;50.966;6.968;2024-01-30T05:20:19;8.60;99.90
46440;DHT22;32138;50.966;6.968;2024-01-30T05:21:50;8.60;99.90
46440;DHT22;32138;50.966;6.968;2024-01-30T05:23:21;8.50;99.90
46440;DHT22;32138;50.966;6.968;2024-01-30T05:24:52;8.50;99.90
46440;DHT22;32138;50.966;6.968;2024-01-30T05:26:23;8.60;99.90
46440;DHT22;32138;50.966;6.968;2024-01-30T05:27:54;8.60;99.90
46440;DHT22;32138;50.966;6.968;2024-01-30T05:29:25;8.50;99.90
46440;DHT22;32138;50.966;6.968;2024-01-30T05:30:57;8.40;99.90
46440;DHT22;32138;50.966;6.968;2024-01-30T05:32:28;8.40;99.90
46440;DHT22;32138;50.966;6.968;2024-01-30T05:33:59;8.40;99.90
46440;DHT22;32138;50.966;6.968;2024-01-30T05:35:29;8.40;99.90
46440;DHT22;32138;50.966;6.968;2024-01-30T05:37:01;8.30;99.90
46440;DHT22;32138;50.966;6.968;2024-01-30T05:38:32;8.50;99.90
46440;DHT22;32138;50.966;6.968;2024-01-30T05:40:03;8.40;99.90
46440;DHT22;32138;50.966;6.968;2024-01-30T05:41:34;8.50;99.90
46440;DHT22;32138;50.966;6.968;2024-01-30T05:43:05;8.50;99.90
46440;DHT22;32138;50.966;6.968;2024-01-30T05:44:36;8.40;99.90
46440;DHT22;32138;50.966;6.968;2024-01-30T05:46:07;8.40;99.90
46440;DHT22;32138;50.966;6.968;2024-01-30T05:47:37;8.50;99.90
46440;DHT22;32138;50.966;6.968;2024-01-30T05:49:09;8.50;99.90
46440;DHT22;32138;50.966;6.968;2024-01-30T05:50:39;8.50;99.90
46440;DHT22;32138;50.966;6.968;2024-01-30T05:52:10;8.50;99.90
46440;DHT22;32138;50.966;6.968;2024-01-30T05:53:41;8.50;99.90
46440;DHT22;32138;50.966;6.968;2024-01-30T05:55:12;8.50;99.90
46440;DHT22;32138;50.966;6.968;2024-01-30T05:56:43;8.60;99.90
46440;DHT22;32138;50.966;6.968;2024-01-30T05:58:14;8.60;99.90
46440;DHT22;32138;50.966;6.968;2024-01-30T05:59:44;8.70;99.90
46440;DHT22;32138;50.966;6.968;2024-01-30T06:01:15;8.60;99.90
46440;DHT22;32138;50.966;6.968;2024-01-30T06:02:46;8.60;99.90
46440;DHT22;32138;50.966;6.968;2024-01-30T06:04:17;8.70;99.90
46440;DHT22;32138;50.966;6.968;2024-01-30T06:05:48;8.80;99.90
46440;DHT22;32138;50.966;6.968;2024-01-30T06:07:18;8.70;99.90
46440;DHT22;32138;50.966;6.968;2024-01-30T06:08:49;8.80;99.90
46440;DHT22;32138;50.966;6.968;2024-01-30T06:10:20;8.70;99.90
46440;DHT22;32138;50.966;6.968;2024-01-30T06:11:50;8.60;99.90
46440;DHT22;32138;50.966;6.968;2024-01-30T06:13:21;8.50;99.90
46440;DHT22;32138;50.966;6.968;2024-01-30T06:14:52;8.40;99.90
46440;DHT22;32138;50.966;6.968;2024-01-30T06:16:24;8.30;99.90
46440;DHT22;32138;50.966;6.968;2024-01-30T06:17:59;8.40;99.90
46440;DHT22;32138;50.966;6.968;2024-01-30T06:19:30;8.40;99.90
46440;DHT22;32138;50.966;6.968;2024-01-30T06:21:01;8.40;99.90
46440;DHT22;32138;50.966;6.968;2024-01-30T06:22:31;8.50;99.90
46440;DHT22;32138;50.966;6.968;2024-01-30T06:24:03;8.50;99.90
46440;DHT22;32138;50.966;6.968;2024-01-30T06:25:33;8.40;99.90
46440;DHT22;32138;50.966;6.968;2024-01-30T06:27:04;8.40;99.90
46440;DHT22;32138;50.966;6.968;2024-01-30T06:28:35;8.30;99.90
46440;DHT22;32138;50.966;6.968;2024-01-30T06:30:06;8.50;99.90
46440;DHT22;32138;50.966;6.968;2024-01-30T06:31:40;8.50;99.90
46440;DHT22;32138;50.966;6.968;2024-01-30T06:33:14;8.50;99.90
46440;DHT22;32138;50.966;6.968;2024-01-30T06:34:45;8.40;99.90
46440;DHT22;32138;50.966;6.968;2024-01-30T06:36:15;8.50;99.90
46440;DHT22;32138;50.966;6.968;2024-01-30T06:37:46;8.50;99.90
46440;DHT22;32138;50.966;6.968;2024-01-30T06:39:17;8.50;99.90
46440;DHT22;32138;50.966;6.968;2024-01-30T06:40:48;8.60;99.90
46440;DHT22;32138;50.966;6.968;2024-01-30T06:42:19;8.60;99.90
46440;DHT22;32138;50.966;6.968;2024-01-30T06:43:50;8.60;99.90
46440;DHT22;32138;50.966;6.968;2024-01-30T06:45:20;8.60;99.90
46440;DHT22;32138;50.966;6.968;2024-01-30T06:46:51;8.50;99.90
46440;DHT22;32138;50.966;6.968;2024-01-30T06:48:22;8.60;99.90
46440;DHT22;32138;50.966;6.968;2024-01-30T06:49:53;8.50;99.90
46440;DHT22;32138;50.966;6.968;2024-01-30T06:51:23;8.50;99.90
46440;DHT22;32138;50.966;6.968;2024-01-30T06:52:54;8.50;99.90
46440;DHT22;32138;50.966;6.968;2024-01-30T06:54:25;8.40;99.90
46440;DHT22;32138;50.966;6.968;2024-01-30T06:55:55;8.50;99.90
46440;DHT22;32138;50.966;6.968;2024-01-30T06:57:26;8.70;99.90
46440;DHT22;32138;50.966;6.968;2024-01-30T06:58:58;8.80;99.90
46440;DHT22;32138;50.966;6.968;2024-01-30T07:00:30;8.50;99.90
46440;DHT22;32138;50.966;6.968;2024-01-30T07:02:01;8.50;99.90
46440;DHT22;32138;50.966;6.968;2024-01-30T07:03:32;8.50;99.90
46440;DHT22;32138;50.966;6.968;2024-01-30T07:05:03;8.50;99.90
46440;DHT22;32138;50.966;6.968;2024-01-30T07:06:34;8.50;99.90
46440;DHT22;32138;50.966;6.968;2024-01-30T07:08:05;8.60;99.90
46440;DHT22;32138;50.966;6.968;2024-01-30T07:09:36;8.70;99.90
46440;DHT22;32138;50.966;6.968;2024-01-30T07:11:07;8.50;99.90
46440;DHT22;32138;50.966;6.968;2024-01-30T07:12:38;8.50;99.90
46440;DHT22;32138;50.966;6.968;2024-01-30T07:14:09;8.50;99.90
46440;DHT22;32138;50.966;6.968;2024-01-30T07:15:39;8.60;99.90
46440;DHT22;32138;50.966;6.968;2024-01-30T07:17:10;8.50;99.90
46440;DHT22;32138;50.966;6.968;2024-01-30T07:18:41;8.70;99.90
46440;DHT22;32138;50.966;6.968;2024-01-30T07:20:12;8.60;99.90
46440;DHT22;32138;50.966;6.968;2024-01-30T07:21:42;8.60;99.90
46440;DHT22;32138;50.966;6.968;2024-01-30T07:23:14;8.50;99.90
46440;DHT22;32138;50.966;6.968;2024-01-30T07:24:47;8.50;99.90
46440;DHT22;32138;50.966;6.968;2024-01-30T07:26:19;8.60;99.90
46440;DHT22;32138;50.966;6.968;2024-01-30T07:27:50;8.70;99.90
46440;DHT22;32138;50.966;6.968;2024-01-30T07:29:21;8.70;99.90
46440;DHT22;32138;50.966;6.968;2024-01-30T07:30:52;8.70;99.90
46440;DHT22;32138;50.966;6.968;2024-01-30T07:32:23;8.70;99.90
46440;DHT22;32138;50.966;6.968;2024-01-30T07:33:54;8.80;99.90
46440;DHT22;32138;50.966;6.968;2024-01-30T07:35:25;8.70;99.90
46440;DHT22;32138;50.966;6.968;2024-01-30T07:36:55;8.80;99.90
46440;DHT22;32138;50.966;6.968;2024-01-30T07:38:26;8.80;99.90
46440;DHT22;32138;50.966;6.968;2024-01-30T07:39:57;8.80;99.90
46440;DHT22;32138;50.966;6.968;2024-01-30T07:41:28;9.00;99.90
46440;DHT22;32138;50.966;6.968;2024-01-30T07:42:59;9.00;99.90
46440;DHT22;32138;50.966;6.968;2024-01-30T07:44:30;8.90;99.90
46440;DHT22;32138;50.966;6.968;2024-01-30T07:46:01;8.90;99.90
46440;DHT22;32138;50.966;6.968;2024-01-30T07:47:33;8.90;99.90
46440;DHT22;32138;50.966;6.968;2024-01-30T07:49:04;8.90;99.90
46440;DHT22;32138;50.966;6.968;2024-01-30T07:50:35;8.80;99.90
46440;DHT22;32138;50.966;6.968;2024-01-30T07:52:05;8.80;99.90
46440;DHT22;32138;50.966;6.968;2024-01-30T07:53:37;8.90;99.90
46440;DHT22;32138;50.966;6.968;2024-01-30T07:55:07;9.00;99.90
46440;DHT22;32138;50.966;6.968;2024-01-30T07:56:38;9.00;99.90
46440;DHT22;32138;50.966;6.968;2024-01-30T07:58:09;9.00;99.90
46440;DHT22;32138;50.966;6.968;2024-01-30T07:59:43;9.20;99.90
46440;DHT22;32138;50.966;6.968;2024-01-30T08:01:16;9.10;99.90
46440;DHT22;32138;50.966;6.968;2024-01-30T08:02:47;9.10;99.90
46440;DHT22;32138;50.966;6.968;2024-01-30T08:04:18;9.20;99.90
46440;DHT22;32138;50.966;6.968;2024-01-30T08:05:49;9.20;99.90
46440;DHT22;32138;50.966;6.968;2024-01-30T08:07:20;9.20;99.90
46440;DHT22;32138;50.966;6.968;2024-01-30T08:08:52;9.10;99.90
46440;DHT22;32138;50.966;6.968;2024-01-30T08:10:23;9.20;99.90
46440;DHT22;32138;50.966;6.968;2024-01-30T08:11:54;9.30;99.90
46440;DHT22;32138;50.966;6.968;2024-01-30T08:13:25;9.20;99.90
46440;DHT22;32138;50.966;6.968;2024-01-30T08:14:56;9.20;99.90
46440;DHT22;32138;50.966;6.968;2024-01-30T08:16:26;9.30;99.90
46440;DHT22;32138;50.966;6.968;2024-01-30T08:17:57;9.40;99.90
46440;DHT22;32138;50.966;6.968;2024-01-30T08:19:29;9.40;99.90
46440;DHT22;32138;50.966;6.968;2024-01-30T08:20:59;9.40;99.90
46440;DHT22;32138;50.966;6.968;2024-01-30T08:22:31;9.40;99.90
46440;DHT22;32138;50.966;6.968;2024-01-30T08:24:05;9.50;99.90
46440;DHT22;32138;50.966;6.968;2024-01-30T08:25:36;9.50;99.90
46440;DHT22;32138;50.966;6.968;2024-01-30T08:27:07;9.50;99.90
46440;DHT22;32138;50.966;6.968;2024-01-30T08:28:42;9.40;99.90
46440;DHT22;32138;50.966;6.968;2024-01-30T08:30:13;9.40;99.90
46440;DHT22;32138;50.966;6.968;2024-01-30T08:31:44;9.40;99.90
46440;DHT22;32138;50.966;6.968;2024-01-30T08:33:16;9.40;99.90
46440;DHT22;32138;50.966;6.968;2024-01-30T08:34:47;9.30;99.90
46440;DHT22;32138;50.966;6.968;2024-01-30T08:36:18;9.30;99.90
46440;DHT22;32138;50.966;6.968;2024-01-30T08:37:48;9.30;99.90
46440;DHT22;32138;50.966;6.968;2024-01-30T08:39:19;9.20;99.90
46440;DHT22;32138;50.966;6.968;2024-01-30T08:40:50;9.20;99.90
46440;DHT22;32138;50.966;6.968;2024-01-30T08:42:21;9.40;99.90
46440;DHT22;32138;50.966;6.968;2024-01-30T08:43:55;9.40;99.90
46440;DHT22;32138;50.966;6.968;2024-01-30T08:45:26;9.60;99.90
46440;DHT22;32138;50.966;6.968;2024-01-30T08:46:57;9.50;99.90
46440;DHT22;32138;50.966;6.968;2024-01-30T08:48:27;9.50;99.90
46440;DHT22;32138;50.966;6.968;2024-01-30T08:49:58;9.50;99.90
46440;DHT22;32138;50.966;6.968;2024-01-30T08:51:30;9.50;99.90
46440;DHT22;32138;50.966;6.968;2024-01-30T08:53:00;9.70;99.90
46440;DHT22;32138;50.966;6.968;2024-01-30T08:54:31;9.70;99.90
46440;DHT22;32138;50.966;6.968;2024-01-30T08:56:06;9.60;99.90
46440;DHT22;32138;50.966;6.968;2024-01-30T08:57:37;9.80;99.90
46440;DHT22;32138;50.966;6.968;2024-01-30T08:59:07;10.00;99.90
46440;DHT22;32138;50.966;6.968;2024-01-30T09:00:39;10.00;99.90
46440;DHT22;32138;50.966;6.968;2024-01-30T09:02:09;10.10;99.90
46440;DHT22;32138;50.966;6.968;2024-01-30T09:03:42;10.40;99.90
46440;DHT22;32138;50.966;6.968;2024-01-30T09:05:15;10.80;99.90
46440;DHT22;32138;50.966;6.968;2024-01-30T09:06:48;11.20;99.90
46440;DHT22;32138;50.966;6.968;2024-01-30T09:08:19;11.10;99.90
46440;DHT22;32138;50.966;6.968;2024-01-30T09:09:53;11.00;99.90
46440;DHT22;32138;50.966;6.968;2024-01-30T09:11:23;10.80;99.90
46440;DHT22;32138;50.966;6.968;2024-01-30T09:12:54;10.80;99.90
46440;DHT22;32138;50.966;6.968;2024-01-30T09:14:25;10.90;99.90
46440;DHT22;32138;50.966;6.968;2024-01-30T09:15:56;10.90;99.90
46440;DHT22;32138;50.966;6.968;2024-01-30T09:17:26;10.80;99.90
46440;DHT22;32138;50.966;6.968;2024-01-30T09:18:57;10.80;99.90
46440;DHT22;32138;50.966;6.968;2024-01-30T09:20:28;10.80;99.90
46440;DHT22;32138;50.966;6.968;2024-01-30T09:21:59;10.60;99.90
46440;DHT22;32138;50.966;6.968;2024-01-30T09:23:30;10.80;99.90
46440;DHT22;32138;50.966;6.968;2024-01-30T09:25:01;11.00;99.90
46440;DHT22;32138;50.966;6.968;2024-01-30T09:26:32;11.10;99.90
46440;DHT22;32138;50.966;6.968;2024-01-30T09:28:03;11.10;99.90
46440;DHT22;32138;50.966;6.968;2024-01-30T09:29:36;11.00;99.90
46440;DHT22;32138;50.966;6.968;2024-01-30T09:31:10;10.90;99.90
46440;DHT22;32138;50.966;6.968;2024-01-30T09:32:41;11.00;99.90
46440;DHT22;32138;50.966;6.968;2024-01-30T09:34:14;11.30;99.90
46440;DHT22;32138;50.966;6.968;2024-01-30T09:35:44;11.30;99.90
46440;DHT22;32138;50.966;6.968;2024-01-30T09:37:16;11.30;99.90
46440;DHT22;32138;50.966;6.968;2024-01-30T09:38:48;11.30;99.90
46440;DHT22;32138;50.966;6.968;2024-01-30T09:40:19;11.20;99.90
46440;DHT22;32138;50.966;6.968;2024-01-30T09:42:11;11.30;99.90
46440;DHT22;32138;50.966;6.968;2024-01-30T09:43:59;11.40;99.90